This is the latest recevied weather packets stored in our database for station/object TG5ALY-16. If no packets are shown the sender has not sent any weather packets the latest 10 day(s).
| Time | Temp. | Humidity | Pressure | Rain* | Wind** | Luminosity | Snow |
|---|---|---|---|---|---|---|---|
| 1777846713 | 20° C | 60% | 1015 hPa | 0 mm | - | - | - |
| 1777844310 | 21.67° C | 45% | 1015 hPa | 0.25 mm | - | - | - |
| 1777843109 | 21.11° C | 46% | 1015 hPa | 0.25 mm | - | - | - |
| 1777840706 | 21.67° C | 47% | 1015 hPa | 0.25 mm | - | - | - |
| 1777840105 | 21.11° C | 50% | 1015 hPa | 0.25 mm | - | - | - |
| 1777839504 | 21.11° C | 50% | 1015 hPa | 0.25 mm | - | - | - |
| 1777838904 | 20.56° C | 53% | 1015 hPa | 0.25 mm | - | - | - |
| 1777837102 | 19.44° C | 59% | 1015 hPa | 0.25 mm | - | - | - |
| 1777835300 | 19.44° C | 60% | 1016 hPa | 0 mm | - | - | - |
| 1777832897 | 18.89° C | 61% | 1016 hPa | 0 mm | - | - | - |
| 1777832296 | 19.44° C | 60% | 1016 hPa | 0 mm | - | - | - |
| 1777826290 | 19.44° C | 61% | 1017 hPa | 0 mm | - | - | - |
| 1777825689 | 19.44° C | 61% | 1017 hPa | 0 mm | - | - | - |
| 1777824488 | 18.89° C | 64% | 1017 hPa | 0 mm | - | - | - |
| 1777823887 | 18.33° C | 65% | 1018 hPa | 0 mm | - | - | - |
| 1777822085 | 17.78° C | 65% | 1017 hPa | 0 mm | - | - | - |
| 1777821484 | 17.78° C | 66% | 1017 hPa | 0 mm | - | - | - |
| 1777815477 | 15° C | 77% | 1018 hPa | 0 mm | - | - | - |
| 1777814877 | 14.44° C | 81% | 1018 hPa | 0 mm | - | - | - |
| 1777811874 | 13.89° C | 82% | 1019 hPa | 0 mm | - | - | - |
| 1777811273 | 13.89° C | 83% | 1019 hPa | 0 mm | - | - | - |
| 1777807669 | 13.89° C | 90% | 1019 hPa | 0 mm | - | - | - |
| 1777807068 | 13.89° C | 91% | 1019 hPa | 0 mm | - | - | - |
| 1777805266 | 13.89° C | 91% | 1019 hPa | 0 mm | - | - | - |
| 1777804065 | 12.78° C | 88% | 1018 hPa | 0 mm | - | - | - |
* Rain latest hour (hover to see other rain measurements)
** Current wind speed in m/s (hover to see current wind gust speed)